sensor_id;sensor_type;location;lat;lon;timestamp;P1;durP1;ratioP1;P2;durP2;ratioP2
38089;SDS011;23904;52.322;10.232;2023-02-12T00:00:41;52.38;;;30.98;;
38089;SDS011;23904;52.322;10.232;2023-02-12T00:03:09;63.42;;;31.30;;
38089;SDS011;23904;52.322;10.232;2023-02-12T00:05:36;63.60;;;33.75;;
38089;SDS011;23904;52.322;10.232;2023-02-12T00:08:03;56.92;;;31.85;;
38089;SDS011;23904;52.322;10.232;2023-02-12T00:10:29;59.22;;;31.83;;
38089;SDS011;23904;52.322;10.232;2023-02-12T00:12:56;59.83;;;30.95;;
38089;SDS011;23904;52.322;10.232;2023-02-12T00:15:21;67.13;;;32.35;;
38089;SDS011;23904;52.322;10.232;2023-02-12T00:17:50;60.90;;;32.13;;
38089;SDS011;23904;52.322;10.232;2023-02-12T00:20:15;65.90;;;32.55;;
38089;SDS011;23904;52.322;10.232;2023-02-12T00:22:41;58.97;;;30.35;;
38089;SDS011;23904;52.322;10.232;2023-02-12T00:25:07;60.97;;;30.73;;
38089;SDS011;23904;52.322;10.232;2023-02-12T00:27:33;57.15;;;30.55;;
38089;SDS011;23904;52.322;10.232;2023-02-12T00:30:00;52.20;;;30.38;;
38089;SDS011;23904;52.322;10.232;2023-02-12T00:32:26;61.97;;;31.35;;
38089;SDS011;23904;52.322;10.232;2023-02-12T00:34:52;53.00;;;29.38;;
38089;SDS011;23904;52.322;10.232;2023-02-12T00:37:19;62.85;;;31.38;;
38089;SDS011;23904;52.322;10.232;2023-02-12T00:39:44;60.17;;;30.67;;
38089;SDS011;23904;52.322;10.232;2023-02-12T00:42:10;62.75;;;29.02;;
38089;SDS011;23904;52.322;10.232;2023-02-12T00:44:36;57.30;;;30.38;;
38089;SDS011;23904;52.322;10.232;2023-02-12T00:47:02;59.45;;;30.95;;
38089;SDS011;23904;52.322;10.232;2023-02-12T00:49:31;56.35;;;30.65;;
38089;SDS011;23904;52.322;10.232;2023-02-12T00:52:03;54.63;;;30.38;;
38089;SDS011;23904;52.322;10.232;2023-02-12T00:54:29;55.40;;;29.13;;
38089;SDS011;23904;52.322;10.232;2023-02-12T00:56:56;50.38;;;29.50;;
38089;SDS011;23904;52.322;10.232;2023-02-12T00:59:23;54.05;;;28.40;;
38089;SDS011;23904;52.322;10.232;2023-02-12T01:01:49;50.20;;;27.42;;
38089;SDS011;23904;52.322;10.232;2023-02-12T01:04:16;55.45;;;27.52;;
38089;SDS011;23904;52.322;10.232;2023-02-12T01:06:42;45.15;;;26.55;;
38089;SDS011;23904;52.322;10.232;2023-02-12T01:09:08;47.65;;;27.17;;
38089;SDS011;23904;52.322;10.232;2023-02-12T01:11:34;44.42;;;25.70;;
38089;SDS011;23904;52.322;10.232;2023-02-12T01:13:59;46.50;;;26.13;;
38089;SDS011;23904;52.322;10.232;2023-02-12T01:16:25;49.90;;;26.08;;
38089;SDS011;23904;52.322;10.232;2023-02-12T01:18:51;51.40;;;25.52;;
38089;SDS011;23904;52.322;10.232;2023-02-12T01:21:20;53.80;;;24.85;;
38089;SDS011;23904;52.322;10.232;2023-02-12T01:23:53;43.03;;;24.95;;
38089;SDS011;23904;52.322;10.232;2023-02-12T01:26:19;50.70;;;25.27;;
38089;SDS011;23904;52.322;10.232;2023-02-12T01:28:49;41.72;;;23.58;;
38089;SDS011;23904;52.322;10.232;2023-02-12T01:31:26;42.40;;;23.90;;
38089;SDS011;23904;52.322;10.232;2023-02-12T01:33:54;41.65;;;24.13;;
38089;SDS011;23904;52.322;10.232;2023-02-12T01:36:22;50.80;;;25.33;;
38089;SDS011;23904;52.322;10.232;2023-02-12T01:38:48;38.90;;;21.65;;
38089;SDS011;23904;52.322;10.232;2023-02-12T01:41:19;44.30;;;22.58;;
38089;SDS011;23904;52.322;10.232;2023-02-12T01:44:06;45.08;;;21.80;;
38089;SDS011;23904;52.322;10.232;2023-02-12T01:46:42;38.35;;;21.50;;
38089;SDS011;23904;52.322;10.232;2023-02-12T01:49:11;45.63;;;22.20;;
38089;SDS011;23904;52.322;10.232;2023-02-12T01:51:58;44.63;;;21.95;;
38089;SDS011;23904;52.322;10.232;2023-02-12T01:54:47;40.80;;;23.23;;
38089;SDS011;23904;52.322;10.232;2023-02-12T01:57:16;43.47;;;24.05;;
38089;SDS011;23904;52.322;10.232;2023-02-12T01:59:42;51.10;;;25.92;;
38089;SDS011;23904;52.322;10.232;2023-02-12T02:02:11;47.58;;;24.35;;
38089;SDS011;23904;52.322;10.232;2023-02-12T02:04:39;46.28;;;24.00;;
38089;SDS011;23904;52.322;10.232;2023-02-12T02:07:12;45.60;;;23.67;;
38089;SDS011;23904;52.322;10.232;2023-02-12T02:09:38;48.95;;;25.30;;
38089;SDS011;23904;52.322;10.232;2023-02-12T02:12:05;45.35;;;25.60;;
38089;SDS011;23904;52.322;10.232;2023-02-12T02:14:51;51.22;;;28.98;;
38089;SDS011;23904;52.322;10.232;2023-02-12T02:17:33;49.05;;;24.67;;
38089;SDS011;23904;52.322;10.232;2023-02-12T02:32:36;47.28;;;23.95;;
38089;SDS011;23904;52.322;10.232;2023-02-12T02:37:44;46.40;;;25.88;;
38089;SDS011;23904;52.322;10.232;2023-02-12T02:40:18;61.95;;;26.75;;
38089;SDS011;23904;52.322;10.232;2023-02-12T02:43:09;49.30;;;24.60;;
38089;SDS011;23904;52.322;10.232;2023-02-12T02:45:45;37.25;;;24.40;;
38089;SDS011;23904;52.322;10.232;2023-02-12T02:48:20;55.45;;;28.80;;
38089;SDS011;23904;52.322;10.232;2023-02-12T02:51:01;49.10;;;26.00;;
38089;SDS011;23904;52.322;10.232;2023-02-12T02:53:45;52.20;;;26.42;;
38089;SDS011;23904;52.322;10.232;2023-02-12T02:56:18;57.22;;;27.70;;
38089;SDS011;23904;52.322;10.232;2023-02-12T02:58:54;43.83;;;26.80;;
38089;SDS011;23904;52.322;10.232;2023-02-12T03:01:31;48.83;;;25.38;;
38089;SDS011;23904;52.322;10.232;2023-02-12T03:06:49;50.47;;;25.95;;
38089;SDS011;23904;52.322;10.232;2023-02-12T03:09:26;45.05;;;25.20;;
38089;SDS011;23904;52.322;10.232;2023-02-12T03:12:00;51.55;;;29.13;;
38089;SDS011;23904;52.322;10.232;2023-02-12T03:14:43;50.58;;;28.73;;
38089;SDS011;23904;52.322;10.232;2023-02-12T03:17:20;60.58;;;27.40;;
38089;SDS011;23904;52.322;10.232;2023-02-12T03:19:54;52.20;;;28.52;;
38089;SDS011;23904;52.322;10.232;2023-02-12T03:22:30;48.00;;;26.20;;
38089;SDS011;23904;52.322;10.232;2023-02-12T03:25:06;46.65;;;26.58;;
38089;SDS011;23904;52.322;10.232;2023-02-12T03:27:43;48.72;;;26.88;;
38089;SDS011;23904;52.322;10.232;2023-02-12T03:30:14;49.20;;;25.80;;
38089;SDS011;23904;52.322;10.232;2023-02-12T03:32:53;49.67;;;25.73;;
38089;SDS011;23904;52.322;10.232;2023-02-12T03:35:39;53.63;;;26.58;;
38089;SDS011;23904;52.322;10.232;2023-02-12T03:41:24;48.33;;;25.80;;
38089;SDS011;23904;52.322;10.232;2023-02-12T03:44:02;53.03;;;26.50;;
38089;SDS011;23904;52.322;10.232;2023-02-12T03:49:16;42.05;;;24.30;;
38089;SDS011;23904;52.322;10.232;2023-02-12T03:51:51;51.95;;;27.52;;
38089;SDS011;23904;52.322;10.232;2023-02-12T03:54:18;45.80;;;24.05;;
38089;SDS011;23904;52.322;10.232;2023-02-12T03:56:56;46.10;;;26.13;;
38089;SDS011;23904;52.322;10.232;2023-02-12T03:59:28;49.13;;;23.90;;
38089;SDS011;23904;52.322;10.232;2023-02-12T04:01:54;43.95;;;22.63;;
38089;SDS011;23904;52.322;10.232;2023-02-12T04:04:23;39.13;;;22.90;;
38089;SDS011;23904;52.322;10.232;2023-02-12T04:06:50;40.95;;;23.45;;
38089;SDS011;23904;52.322;10.232;2023-02-12T04:09:17;41.05;;;22.98;;
38089;SDS011;23904;52.322;10.232;2023-02-12T04:12:07;43.53;;;22.45;;
38089;SDS011;23904;52.322;10.232;2023-02-12T04:15:23;38.25;;;19.83;;
38089;SDS011;23904;52.322;10.232;2023-02-12T04:18:06;44.63;;;22.20;;
38089;SDS011;23904;52.322;10.232;2023-02-12T04:23:47;39.60;;;20.95;;
38089;SDS011;23904;52.322;10.232;2023-02-12T04:26:37;48.72;;;20.85;;
38089;SDS011;23904;52.322;10.232;2023-02-12T04:32:20;41.10;;;21.25;;
38089;SDS011;23904;52.322;10.232;2023-02-12T04:37:35;42.33;;;20.52;;
38089;SDS011;23904;52.322;10.232;2023-02-12T04:40:08;36.33;;;21.52;;
38089;SDS011;23904;52.322;10.232;2023-02-12T04:42:41;40.40;;;22.30;;
38089;SDS011;23904;52.322;10.232;2023-02-12T04:45:13;35.78;;;20.45;;
38089;SDS011;23904;52.322;10.232;2023-02-12T04:47:45;36.38;;;20.77;;
38089;SDS011;23904;52.322;10.232;2023-02-12T04:50:11;38.17;;;21.45;;
38089;SDS011;23904;52.322;10.232;2023-02-12T04:52:37;36.55;;;21.52;;
38089;SDS011;23904;52.322;10.232;2023-02-12T04:55:02;35.90;;;20.25;;
38089;SDS011;23904;52.322;10.232;2023-02-12T04:57:28;35.28;;;21.60;;
38089;SDS011;23904;52.322;10.232;2023-02-12T04:59:54;37.45;;;21.77;;
38089;SDS011;23904;52.322;10.232;2023-02-12T05:02:19;35.50;;;21.45;;
38089;SDS011;23904;52.322;10.232;2023-02-12T05:04:47;40.22;;;22.17;;
38089;SDS011;23904;52.322;10.232;2023-02-12T05:07:14;41.95;;;21.23;;
38089;SDS011;23904;52.322;10.232;2023-02-12T05:09:40;38.92;;;22.70;;
38089;SDS011;23904;52.322;10.232;2023-02-12T05:12:06;37.63;;;20.77;;
38089;SDS011;23904;52.322;10.232;2023-02-12T05:14:32;35.15;;;20.08;;
38089;SDS011;23904;52.322;10.232;2023-02-12T05:16:57;32.80;;;19.63;;
38089;SDS011;23904;52.322;10.232;2023-02-12T05:19:23;39.20;;;21.25;;
38089;SDS011;23904;52.322;10.232;2023-02-12T05:21:49;39.95;;;20.58;;
38089;SDS011;23904;52.322;10.232;2023-02-12T05:24:15;36.90;;;20.80;;
38089;SDS011;23904;52.322;10.232;2023-02-12T05:26:41;44.20;;;22.38;;
38089;SDS011;23904;52.322;10.232;2023-02-12T05:29:07;47.17;;;23.02;;
38089;SDS011;23904;52.322;10.232;2023-02-12T05:31:32;39.67;;;21.70;;
38089;SDS011;23904;52.322;10.232;2023-02-12T05:33:58;40.38;;;22.40;;
38089;SDS011;23904;52.322;10.232;2023-02-12T05:36:25;41.67;;;23.60;;
38089;SDS011;23904;52.322;10.232;2023-02-12T05:38:52;46.15;;;22.48;;
38089;SDS011;23904;52.322;10.232;2023-02-12T05:41:22;44.83;;;24.13;;
38089;SDS011;23904;52.322;10.232;2023-02-12T05:43:49;49.35;;;23.40;;
38089;SDS011;23904;52.322;10.232;2023-02-12T05:46:16;40.13;;;20.50;;
38089;SDS011;23904;52.322;10.232;2023-02-12T05:48:44;42.42;;;22.35;;
38089;SDS011;23904;52.322;10.232;2023-02-12T05:51:10;41.70;;;22.10;;
38089;SDS011;23904;52.322;10.232;2023-02-12T05:53:46;44.17;;;22.00;;
38089;SDS011;23904;52.322;10.232;2023-02-12T05:58:40;37.30;;;22.08;;
38089;SDS011;23904;52.322;10.232;2023-02-12T06:01:17;47.60;;;23.45;;
38089;SDS011;23904;52.322;10.232;2023-02-12T06:03:52;45.13;;;21.60;;
38089;SDS011;23904;52.322;10.232;2023-02-12T06:06:18;37.70;;;22.65;;
38089;SDS011;23904;52.322;10.232;2023-02-12T06:08:46;37.03;;;23.20;;
38089;SDS011;23904;52.322;10.232;2023-02-12T06:11:13;35.03;;;20.42;;
38089;SDS011;23904;52.322;10.232;2023-02-12T06:13:40;37.45;;;20.83;;
38089;SDS011;23904;52.322;10.232;2023-02-12T06:16:22;45.33;;;22.05;;
38089;SDS011;23904;52.322;10.232;2023-02-12T06:18:51;40.17;;;20.65;;
38089;SDS011;23904;52.322;10.232;2023-02-12T06:21:19;48.70;;;21.95;;
38089;SDS011;23904;52.322;10.232;2023-02-12T06:23:47;38.35;;;20.33;;
38089;SDS011;23904;52.322;10.232;2023-02-12T06:26:13;36.88;;;20.85;;
38089;SDS011;23904;52.322;10.232;2023-02-12T06:28:39;42.38;;;20.35;;
38089;SDS011;23904;52.322;10.232;2023-02-12T06:31:05;43.65;;;21.92;;
38089;SDS011;23904;52.322;10.232;2023-02-12T06:33:44;41.90;;;20.35;;
38089;SDS011;23904;52.322;10.232;2023-02-12T06:36:10;42.90;;;20.70;;
38089;SDS011;23904;52.322;10.232;2023-02-12T06:38:35;41.72;;;21.88;;
38089;SDS011;23904;52.322;10.232;2023-02-12T06:41:01;41.85;;;21.92;;
38089;SDS011;23904;52.322;10.232;2023-02-12T06:43:27;37.30;;;18.85;;
38089;SDS011;23904;52.322;10.232;2023-02-12T06:45:53;45.60;;;20.95;;
38089;SDS011;23904;52.322;10.232;2023-02-12T06:48:19;42.38;;;21.38;;
38089;SDS011;23904;52.322;10.232;2023-02-12T06:50:44;43.65;;;22.65;;
38089;SDS011;23904;52.322;10.232;2023-02-12T06:53:10;50.45;;;21.83;;
38089;SDS011;23904;52.322;10.232;2023-02-12T06:55:35;47.65;;;22.25;;
38089;SDS011;23904;52.322;10.232;2023-02-12T06:58:01;47.20;;;24.02;;
38089;SDS011;23904;52.322;10.232;2023-02-12T07:00:26;42.17;;;23.17;;
38089;SDS011;23904;52.322;10.232;2023-02-12T07:02:55;47.05;;;22.95;;
38089;SDS011;23904;52.322;10.232;2023-02-12T07:05:21;47.30;;;22.65;;
38089;SDS011;23904;52.322;10.232;2023-02-12T07:07:47;50.22;;;22.80;;
38089;SDS011;23904;52.322;10.232;2023-02-12T07:10:13;52.58;;;23.90;;
38089;SDS011;23904;52.322;10.232;2023-02-12T07:12:38;52.42;;;25.48;;
38089;SDS011;23904;52.322;10.232;2023-02-12T07:15:04;57.70;;;26.63;;
38089;SDS011;23904;52.322;10.232;2023-02-12T07:17:30;55.30;;;26.58;;
38089;SDS011;23904;52.322;10.232;2023-02-12T07:19:55;59.13;;;25.90;;
38089;SDS011;23904;52.322;10.232;2023-02-12T07:22:21;69.70;;;26.25;;
38089;SDS011;23904;52.322;10.232;2023-02-12T07:24:47;55.63;;;25.73;;
38089;SDS011;23904;52.322;10.232;2023-02-12T07:27:13;55.35;;;26.48;;
38089;SDS011;23904;52.322;10.232;2023-02-12T07:29:39;53.53;;;25.08;;
38089;SDS011;23904;52.322;10.232;2023-02-12T07:32:04;56.58;;;25.45;;
38089;SDS011;23904;52.322;10.232;2023-02-12T07:34:31;55.55;;;26.90;;
38089;SDS011;23904;52.322;10.232;2023-02-12T07:36:57;77.25;;;31.30;;
38089;SDS011;23904;52.322;10.232;2023-02-12T07:39:22;62.58;;;30.50;;
38089;SDS011;23904;52.322;10.232;2023-02-12T07:41:48;75.00;;;29.52;;
38089;SDS011;23904;52.322;10.232;2023-02-12T07:44:14;64.32;;;27.58;;
38089;SDS011;23904;52.322;10.232;2023-02-12T07:46:41;67.07;;;29.02;;
38089;SDS011;23904;52.322;10.232;2023-02-12T07:49:13;55.22;;;28.23;;
38089;SDS011;23904;52.322;10.232;2023-02-12T07:51:44;60.10;;;28.45;;
38089;SDS011;23904;52.322;10.232;2023-02-12T07:54:10;53.15;;;26.40;;
38089;SDS011;23904;52.322;10.232;2023-02-12T07:56:37;62.42;;;27.25;;
38089;SDS011;23904;52.322;10.232;2023-02-12T07:59:04;56.47;;;26.75;;
38089;SDS011;23904;52.322;10.232;2023-02-12T08:01:35;58.92;;;27.38;;
38089;SDS011;23904;52.322;10.232;2023-02-12T08:04:04;58.10;;;25.08;;
38089;SDS011;23904;52.322;10.232;2023-02-12T08:06:34;56.65;;;26.02;;
38089;SDS011;23904;52.322;10.232;2023-02-12T08:09:04;62.85;;;25.55;;
38089;SDS011;23904;52.322;10.232;2023-02-12T08:11:33;60.97;;;28.95;;
38089;SDS011;23904;52.322;10.232;2023-02-12T08:14:00;51.88;;;24.95;;
38089;SDS011;23904;52.322;10.232;2023-02-12T08:16:27;59.15;;;25.95;;
38089;SDS011;23904;52.322;10.232;2023-02-12T08:18:54;65.38;;;26.42;;
38089;SDS011;23904;52.322;10.232;2023-02-12T08:21:21;55.83;;;26.00;;
38089;SDS011;23904;52.322;10.232;2023-02-12T08:23:49;53.17;;;26.00;;
38089;SDS011;23904;52.322;10.232;2023-02-12T08:29:09;53.53;;;26.13;;
38089;SDS011;23904;52.322;10.232;2023-02-12T08:31:39;45.15;;;22.80;;
38089;SDS011;23904;52.322;10.232;2023-02-12T08:34:20;53.00;;;24.85;;
38089;SDS011;23904;52.322;10.232;2023-02-12T08:36:49;46.65;;;23.30;;
38089;SDS011;23904;52.322;10.232;2023-02-12T08:39:17;40.45;;;20.95;;
38089;SDS011;23904;52.322;10.232;2023-02-12T08:41:43;39.30;;;21.08;;
38089;SDS011;23904;52.322;10.232;2023-02-12T08:44:10;48.70;;;21.70;;
38089;SDS011;23904;52.322;10.232;2023-02-12T08:46:37;44.13;;;21.02;;
38089;SDS011;23904;52.322;10.232;2023-02-12T08:49:08;44.47;;;22.50;;
38089;SDS011;23904;52.322;10.232;2023-02-12T08:51:39;43.75;;;22.35;;
38089;SDS011;23904;52.322;10.232;2023-02-12T08:54:10;44.45;;;23.35;;
38089;SDS011;23904;52.322;10.232;2023-02-12T08:56:38;52.50;;;26.42;;
38089;SDS011;23904;52.322;10.232;2023-02-12T08:59:06;54.47;;;25.17;;
38089;SDS011;23904;52.322;10.232;2023-02-12T09:01:34;50.40;;;25.05;;
38089;SDS011;23904;52.322;10.232;2023-02-12T09:04:05;50.67;;;23.98;;
38089;SDS011;23904;52.322;10.232;2023-02-12T09:06:34;51.55;;;25.67;;
38089;SDS011;23904;52.322;10.232;2023-02-12T09:08:59;44.60;;;22.77;;
38089;SDS011;23904;52.322;10.232;2023-02-12T09:11:27;54.20;;;27.38;;
38089;SDS011;23904;52.322;10.232;2023-02-12T09:13:57;55.08;;;27.13;;
38089;SDS011;23904;52.322;10.232;2023-02-12T09:16:27;60.05;;;28.63;;
38089;SDS011;23904;52.322;10.232;2023-02-12T09:18:55;54.83;;;28.10;;
38089;SDS011;23904;52.322;10.232;2023-02-12T09:21:21;58.85;;;28.08;;
38089;SDS011;23904;52.322;10.232;2023-02-12T09:23:47;52.72;;;27.67;;
38089;SDS011;23904;52.322;10.232;2023-02-12T09:26:15;51.60;;;26.48;;
38089;SDS011;23904;52.322;10.232;2023-02-12T09:28:44;50.65;;;24.67;;
38089;SDS011;23904;52.322;10.232;2023-02-12T09:31:12;48.15;;;24.63;;
38089;SDS011;23904;52.322;10.232;2023-02-12T09:33:50;45.60;;;24.83;;
38089;SDS011;23904;52.322;10.232;2023-02-12T09:36:21;48.03;;;25.40;;
38089;SDS011;23904;52.322;10.232;2023-02-12T09:38:47;40.72;;;22.15;;
38089;SDS011;23904;52.322;10.232;2023-02-12T09:41:30;38.60;;;21.73;;
38089;SDS011;23904;52.322;10.232;2023-02-12T09:44:42;40.95;;;21.48;;
38089;SDS011;23904;52.322;10.232;2023-02-12T09:47:31;45.35;;;22.40;;
38089;SDS011;23904;52.322;10.232;2023-02-12T09:52:37;40.33;;;21.75;;
38089;SDS011;23904;52.322;10.232;2023-02-12T09:55:03;46.80;;;22.75;;
38089;SDS011;23904;52.322;10.232;2023-02-12T09:57:30;42.25;;;21.50;;
38089;SDS011;23904;52.322;10.232;2023-02-12T10:00:06;39.92;;;22.50;;
38089;SDS011;23904;52.322;10.232;2023-02-12T10:02:43;43.53;;;23.30;;
38089;SDS011;23904;52.322;10.232;2023-02-12T10:05:15;43.35;;;23.60;;
38089;SDS011;23904;52.322;10.232;2023-02-12T10:13:42;44.75;;;23.33;;
38089;SDS011;23904;52.322;10.232;2023-02-12T10:25:19;44.22;;;24.95;;
38089;SDS011;23904;52.322;10.232;2023-02-12T10:28:18;44.35;;;22.88;;
38089;SDS011;23904;52.322;10.232;2023-02-12T10:31:05;48.22;;;24.75;;
38089;SDS011;23904;52.322;10.232;2023-02-12T10:33:47;49.90;;;24.45;;
38089;SDS011;23904;52.322;10.232;2023-02-12T10:36:31;51.30;;;25.13;;
38089;SDS011;23904;52.322;10.232;2023-02-12T10:41:37;60.05;;;28.13;;
38089;SDS011;23904;52.322;10.232;2023-02-12T10:44:18;52.92;;;26.67;;
38089;SDS011;23904;52.322;10.232;2023-02-12T10:46:43;56.20;;;29.05;;
38089;SDS011;23904;52.322;10.232;2023-02-12T10:49:10;59.10;;;26.63;;
38089;SDS011;23904;52.322;10.232;2023-02-12T10:57:05;51.97;;;27.20;;
38089;SDS011;23904;52.322;10.232;2023-02-12T10:59:49;49.80;;;25.08;;
38089;SDS011;23904;52.322;10.232;2023-02-12T11:02:30;48.45;;;24.17;;
38089;SDS011;23904;52.322;10.232;2023-02-12T11:04:58;44.25;;;22.58;;
38089;SDS011;23904;52.322;10.232;2023-02-12T11:07:48;48.15;;;23.13;;
38089;SDS011;23904;52.322;10.232;2023-02-12T11:10:28;48.58;;;21.52;;
38089;SDS011;23904;52.322;10.232;2023-02-12T11:13:03;42.65;;;20.13;;
38089;SDS011;23904;52.322;10.232;2023-02-12T11:15:33;44.20;;;21.05;;
38089;SDS011;23904;52.322;10.232;2023-02-12T11:18:22;48.70;;;22.88;;
38089;SDS011;23904;52.322;10.232;2023-02-12T11:20:59;50.03;;;22.95;;
38089;SDS011;23904;52.322;10.232;2023-02-12T11:28:58;55.17;;;24.80;;
38089;SDS011;23904;52.322;10.232;2023-02-12T11:31:27;63.42;;;24.27;;
38089;SDS011;23904;52.322;10.232;2023-02-12T11:34:06;61.00;;;23.40;;
38089;SDS011;23904;52.322;10.232;2023-02-12T11:36:40;70.30;;;28.23;;
38089;SDS011;23904;52.322;10.232;2023-02-12T11:44:39;64.55;;;27.27;;
38089;SDS011;23904;52.322;10.232;2023-02-12T11:47:08;56.15;;;25.35;;
38089;SDS011;23904;52.322;10.232;2023-02-12T11:49:49;57.83;;;24.23;;
38089;SDS011;23904;52.322;10.232;2023-02-12T11:52:21;57.72;;;26.02;;
38089;SDS011;23904;52.322;10.232;2023-02-12T11:55:00;51.30;;;24.75;;
38089;SDS011;23904;52.322;10.232;2023-02-12T11:57:35;55.47;;;24.75;;
38089;SDS011;23904;52.322;10.232;2023-02-12T12:00:13;54.47;;;26.00;;
38089;SDS011;23904;52.322;10.232;2023-02-12T12:02:44;54.28;;;25.17;;
38089;SDS011;23904;52.322;10.232;2023-02-12T12:05:21;59.20;;;25.42;;
38089;SDS011;23904;52.322;10.232;2023-02-12T12:07:57;55.05;;;24.63;;
38089;SDS011;23904;52.322;10.232;2023-02-12T12:10:30;52.25;;;26.55;;
38089;SDS011;23904;52.322;10.232;2023-02-12T12:13:17;51.58;;;24.40;;
38089;SDS011;23904;52.322;10.232;2023-02-12T12:15:49;52.47;;;25.80;;
38089;SDS011;23904;52.322;10.232;2023-02-12T12:18:44;44.22;;;23.25;;
38089;SDS011;23904;52.322;10.232;2023-02-12T12:21:39;51.15;;;25.25;;
38089;SDS011;23904;52.322;10.232;2023-02-12T12:24:51;46.05;;;23.50;;
38089;SDS011;23904;52.322;10.232;2023-02-12T12:30:22;41.10;;;23.25;;
38089;SDS011;23904;52.322;10.232;2023-02-12T12:33:02;39.25;;;22.63;;
38089;SDS011;23904;52.322;10.232;2023-02-12T12:35:46;39.90;;;20.58;;
38089;SDS011;23904;52.322;10.232;2023-02-12T12:41:23;40.83;;;22.80;;
38089;SDS011;23904;52.322;10.232;2023-02-12T12:56:34;40.42;;;21.25;;
38089;SDS011;23904;52.322;10.232;2023-02-12T13:08:28;39.42;;;21.75;;
38089;SDS011;23904;52.322;10.232;2023-02-12T13:11:21;35.63;;;21.13;;
38089;SDS011;23904;52.322;10.232;2023-02-12T13:14:16;36.20;;;20.85;;
38089;SDS011;23904;52.322;10.232;2023-02-12T13:20:32;33.58;;;17.88;;
38089;SDS011;23904;52.322;10.232;2023-02-12T13:23:31;32.38;;;18.92;;
38089;SDS011;23904;52.322;10.232;2023-02-12T13:27:11;35.58;;;19.55;;
38089;SDS011;23904;52.322;10.232;2023-02-12T13:29:18;33.42;;;17.63;;
38089;SDS011;23904;52.322;10.232;2023-02-12T13:31:50;31.88;;;18.85;;
38089;SDS011;23904;52.322;10.232;2023-02-12T13:34:43;28.98;;;16.60;;
38089;SDS011;23904;52.322;10.232;2023-02-12T13:40:17;29.13;;;16.50;;
38089;SDS011;23904;52.322;10.232;2023-02-12T13:43:06;32.47;;;17.08;;
38089;SDS011;23904;52.322;10.232;2023-02-12T13:46:23;29.80;;;16.60;;
38089;SDS011;23904;52.322;10.232;2023-02-12T13:51:49;25.13;;;14.23;;
38089;SDS011;23904;52.322;10.232;2023-02-12T13:54:35;23.88;;;14.77;;
38089;SDS011;23904;52.322;10.232;2023-02-12T13:57:44;25.70;;;14.38;;
38089;SDS011;23904;52.322;10.232;2023-02-12T14:03:16;17.92;;;12.82;;
38089;SDS011;23904;52.322;10.232;2023-02-12T14:06:12;20.02;;;12.30;;
38089;SDS011;23904;52.322;10.232;2023-02-12T14:08:47;23.33;;;13.48;;
38089;SDS011;23904;52.322;10.232;2023-02-12T14:11:17;20.98;;;12.00;;
38089;SDS011;23904;52.322;10.232;2023-02-12T14:13:57;18.25;;;11.55;;
38089;SDS011;23904;52.322;10.232;2023-02-12T14:22:09;17.88;;;12.50;;
38089;SDS011;23904;52.322;10.232;2023-02-12T14:24:48;19.13;;;13.30;;
38089;SDS011;23904;52.322;10.232;2023-02-12T14:35:36;19.98;;;12.82;;
38089;SDS011;23904;52.322;10.232;2023-02-12T14:45:55;22.90;;;15.07;;
38089;SDS011;23904;52.322;10.232;2023-02-12T14:48:49;23.92;;;15.05;;
38089;SDS011;23904;52.322;10.232;2023-02-12T14:51:20;24.20;;;15.75;;
38089;SDS011;23904;52.322;10.232;2023-02-12T14:53:58;26.00;;;16.13;;
38089;SDS011;23904;52.322;10.232;2023-02-12T14:56:24;23.73;;;15.68;;
38089;SDS011;23904;52.322;10.232;2023-02-12T14:58:51;27.90;;;16.73;;
38089;SDS011;23904;52.322;10.232;2023-02-12T15:01:32;25.58;;;16.52;;
38089;SDS011;23904;52.322;10.232;2023-02-12T15:04:02;24.38;;;15.90;;
38089;SDS011;23904;52.322;10.232;2023-02-12T15:06:48;37.38;;;21.25;;
38089;SDS011;23904;52.322;10.232;2023-02-12T15:09:36;31.10;;;20.88;;
38089;SDS011;23904;52.322;10.232;2023-02-12T15:12:19;37.92;;;24.88;;
38089;SDS011;23904;52.322;10.232;2023-02-12T15:15:00;36.65;;;24.95;;
38089;SDS011;23904;52.322;10.232;2023-02-12T15:17:36;39.33;;;25.80;;
38089;SDS011;23904;52.322;10.232;2023-02-12T15:20:25;41.53;;;27.83;;
38089;SDS011;23904;52.322;10.232;2023-02-12T15:22:59;39.25;;;27.70;;
38089;SDS011;23904;52.322;10.232;2023-02-12T15:27:53;41.63;;;29.55;;
38089;SDS011;23904;52.322;10.232;2023-02-12T15:30:26;37.60;;;27.25;;
38089;SDS011;23904;52.322;10.232;2023-02-12T15:33:02;39.35;;;27.77;;
38089;SDS011;23904;52.322;10.232;2023-02-12T15:35:31;36.47;;;26.40;;
38089;SDS011;23904;52.322;10.232;2023-02-12T15:37:59;35.90;;;24.90;;
38089;SDS011;23904;52.322;10.232;2023-02-12T15:40:26;30.25;;;22.50;;
38089;SDS011;23904;52.322;10.232;2023-02-12T15:42:55;30.30;;;22.75;;
38089;SDS011;23904;52.322;10.232;2023-02-12T15:45:27;35.33;;;23.83;;
38089;SDS011;23904;52.322;10.232;2023-02-12T15:47:57;31.10;;;23.17;;
38089;SDS011;23904;52.322;10.232;2023-02-12T15:50:32;27.70;;;18.85;;
38089;SDS011;23904;52.322;10.232;2023-02-12T15:53:00;27.10;;;17.23;;
38089;SDS011;23904;52.322;10.232;2023-02-12T15:55:27;23.02;;;16.15;;
38089;SDS011;23904;52.322;10.232;2023-02-12T15:57:59;21.23;;;15.02;;
38089;SDS011;23904;52.322;10.232;2023-02-12T16:03:20;20.40;;;13.75;;
38089;SDS011;23904;52.322;10.232;2023-02-12T16:05:53;22.75;;;13.13;;
38089;SDS011;23904;52.322;10.232;2023-02-12T16:08:26;17.17;;;10.93;;
38089;SDS011;23904;52.322;10.232;2023-02-12T16:10:52;14.98;;;10.93;;
38089;SDS011;23904;52.322;10.232;2023-02-12T16:13:22;20.02;;;12.70;;
38089;SDS011;23904;52.322;10.232;2023-02-12T16:16:13;20.48;;;12.05;;
38089;SDS011;23904;52.322;10.232;2023-02-12T16:19:01;18.38;;;12.60;;
38089;SDS011;23904;52.322;10.232;2023-02-12T16:21:44;20.65;;;11.60;;
38089;SDS011;23904;52.322;10.232;2023-02-12T16:24:21;18.73;;;12.10;;
38089;SDS011;23904;52.322;10.232;2023-02-12T16:26:53;18.33;;;12.10;;
38089;SDS011;23904;52.322;10.232;2023-02-12T16:29:20;24.58;;;13.45;;
38089;SDS011;23904;52.322;10.232;2023-02-12T16:31:59;21.90;;;13.13;;
38089;SDS011;23904;52.322;10.232;2023-02-12T16:34:28;20.15;;;11.40;;
38089;SDS011;23904;52.322;10.232;2023-02-12T16:37:01;20.75;;;12.38;;
38089;SDS011;23904;52.322;10.232;2023-02-12T16:40:07;22.35;;;12.73;;
38089;SDS011;23904;52.322;10.232;2023-02-12T16:42:37;20.15;;;12.18;;
38089;SDS011;23904;52.322;10.232;2023-02-12T16:47:54;19.52;;;12.30;;
38089;SDS011;23904;52.322;10.232;2023-02-12T16:50:31;15.75;;;9.88;;
38089;SDS011;23904;52.322;10.232;2023-02-12T16:52:59;21.30;;;11.35;;
38089;SDS011;23904;52.322;10.232;2023-02-12T16:55:39;15.77;;;10.10;;
38089;SDS011;23904;52.322;10.232;2023-02-12T16:58:05;16.40;;;9.43;;
38089;SDS011;23904;52.322;10.232;2023-02-12T17:00:32;17.77;;;9.77;;
38089;SDS011;23904;52.322;10.232;2023-02-12T17:02:58;15.05;;;9.57;;
38089;SDS011;23904;52.322;10.232;2023-02-12T17:05:23;12.45;;;8.57;;